sensor_id;sensor_type;location;lat;lon;timestamp;P1;durP1;ratioP1;P2;durP2;ratioP2
41115;SDS011;26861;51.824;4.682;2023-02-22T00:02:17;9.77;;;7.55;;
41115;SDS011;26861;51.824;4.682;2023-02-22T00:04:51;9.38;;;7.32;;
41115;SDS011;26861;51.824;4.682;2023-02-22T00:07:17;10.57;;;7.68;;
41115;SDS011;26861;51.824;4.682;2023-02-22T00:09:45;10.65;;;7.65;;
41115;SDS011;26861;51.824;4.682;2023-02-22T00:12:11;9.50;;;6.72;;
41115;SDS011;26861;51.824;4.682;2023-02-22T00:14:36;9.23;;;7.15;;
41115;SDS011;26861;51.824;4.682;2023-02-22T00:17:02;9.57;;;7.10;;
41115;SDS011;26861;51.824;4.682;2023-02-22T00:19:27;8.07;;;6.70;;
41115;SDS011;26861;51.824;4.682;2023-02-22T00:21:55;7.80;;;6.40;;
41115;SDS011;26861;51.824;4.682;2023-02-22T00:24:22;9.32;;;7.20;;
41115;SDS011;26861;51.824;4.682;2023-02-22T00:26:52;7.45;;;6.15;;
41115;SDS011;26861;51.824;4.682;2023-02-22T00:29:20;8.43;;;6.43;;
41115;SDS011;26861;51.824;4.682;2023-02-22T00:31:47;7.95;;;6.13;;
41115;SDS011;26861;51.824;4.682;2023-02-22T00:34:13;9.13;;;6.95;;
41115;SDS011;26861;51.824;4.682;2023-02-22T00:36:44;8.07;;;6.18;;
41115;SDS011;26861;51.824;4.682;2023-02-22T00:39:11;9.95;;;6.55;;
41115;SDS011;26861;51.824;4.682;2023-02-22T00:41:37;9.73;;;6.82;;
41115;SDS011;26861;51.824;4.682;2023-02-22T00:44:03;7.25;;;5.85;;
41115;SDS011;26861;51.824;4.682;2023-02-22T00:46:29;11.05;;;6.90;;
41115;SDS011;26861;51.824;4.682;2023-02-22T00:48:55;8.15;;;6.55;;
41115;SDS011;26861;51.824;4.682;2023-02-22T00:51:24;9.70;;;7.13;;
41115;SDS011;26861;51.824;4.682;2023-02-22T00:53:51;7.97;;;6.38;;
41115;SDS011;26861;51.824;4.682;2023-02-22T00:56:17;8.18;;;6.43;;
41115;SDS011;26861;51.824;4.682;2023-02-22T00:58:43;7.57;;;5.90;;
41115;SDS011;26861;51.824;4.682;2023-02-22T01:01:09;9.00;;;7.18;;
41115;SDS011;26861;51.824;4.682;2023-02-22T01:03:35;8.45;;;6.78;;
41115;SDS011;26861;51.824;4.682;2023-02-22T01:06:05;8.52;;;6.60;;
41115;SDS011;26861;51.824;4.682;2023-02-22T01:08:32;7.43;;;5.68;;
41115;SDS011;26861;51.824;4.682;2023-02-22T01:10:58;8.27;;;6.60;;
41115;SDS011;26861;51.824;4.682;2023-02-22T01:13:24;9.85;;;7.55;;
41115;SDS011;26861;51.824;4.682;2023-02-22T01:15:50;10.27;;;7.15;;
41115;SDS011;26861;51.824;4.682;2023-02-22T01:18:16;8.32;;;6.32;;
41115;SDS011;26861;51.824;4.682;2023-02-22T01:20:42;8.82;;;6.93;;
41115;SDS011;26861;51.824;4.682;2023-02-22T01:23:12;8.05;;;5.65;;
41115;SDS011;26861;51.824;4.682;2023-02-22T01:25:38;8.10;;;6.57;;
41115;SDS011;26861;51.824;4.682;2023-02-22T01:28:05;7.53;;;6.15;;
41115;SDS011;26861;51.824;4.682;2023-02-22T01:30:32;7.20;;;5.70;;
41115;SDS011;26861;51.824;4.682;2023-02-22T01:33:00;8.63;;;6.25;;
41115;SDS011;26861;51.824;4.682;2023-02-22T01:35:29;7.10;;;5.82;;
41115;SDS011;26861;51.824;4.682;2023-02-22T01:37:57;7.38;;;5.65;;
41115;SDS011;26861;51.824;4.682;2023-02-22T01:40:31;8.88;;;6.75;;
41115;SDS011;26861;51.824;4.682;2023-02-22T01:42:59;7.68;;;6.05;;
41115;SDS011;26861;51.824;4.682;2023-02-22T01:47:59;6.10;;;5.13;;
41115;SDS011;26861;51.824;4.682;2023-02-22T01:50:31;5.88;;;5.25;;
41115;SDS011;26861;51.824;4.682;2023-02-22T01:53:01;6.60;;;5.47;;
41115;SDS011;26861;51.824;4.682;2023-02-22T01:55:28;6.43;;;5.10;;
41115;SDS011;26861;51.824;4.682;2023-02-22T01:57:55;8.02;;;5.35;;
41115;SDS011;26861;51.824;4.682;2023-02-22T02:00:21;7.20;;;5.60;;
41115;SDS011;26861;51.824;4.682;2023-02-22T02:02:49;7.00;;;5.72;;
41115;SDS011;26861;51.824;4.682;2023-02-22T02:05:24;7.22;;;5.13;;
41115;SDS011;26861;51.824;4.682;2023-02-22T02:07:51;6.95;;;5.53;;
41115;SDS011;26861;51.824;4.682;2023-02-22T02:10:18;7.18;;;5.32;;
41115;SDS011;26861;51.824;4.682;2023-02-22T02:12:47;6.40;;;5.15;;
41115;SDS011;26861;51.824;4.682;2023-02-22T02:15:22;6.25;;;5.28;;
41115;SDS011;26861;51.824;4.682;2023-02-22T02:17:49;8.32;;;6.63;;
41115;SDS011;26861;51.824;4.682;2023-02-22T02:28:49;5.55;;;4.88;;
41115;SDS011;26861;51.824;4.682;2023-02-22T02:34:30;6.55;;;5.28;;
41115;SDS011;26861;51.824;4.682;2023-02-22T02:37:14;5.80;;;4.88;;
41115;SDS011;26861;51.824;4.682;2023-02-22T02:40:29;5.53;;;4.82;;
41115;SDS011;26861;51.824;4.682;2023-02-22T02:43:35;6.35;;;5.63;;
41115;SDS011;26861;51.824;4.682;2023-02-22T02:45:41;6.78;;;5.38;;
41115;SDS011;26861;51.824;4.682;2023-02-22T02:48:14;5.25;;;4.68;;
41115;SDS011;26861;51.824;4.682;2023-02-22T02:50:46;5.70;;;4.45;;
41115;SDS011;26861;51.824;4.682;2023-02-22T02:53:14;6.93;;;5.35;;
41115;SDS011;26861;51.824;4.682;2023-02-22T02:55:46;6.55;;;4.93;;
41115;SDS011;26861;51.824;4.682;2023-02-22T02:58:17;6.90;;;5.03;;
41115;SDS011;26861;51.824;4.682;2023-02-22T03:00:44;7.68;;;5.55;;
41115;SDS011;26861;51.824;4.682;2023-02-22T03:03:24;7.47;;;5.90;;
41115;SDS011;26861;51.824;4.682;2023-02-22T03:06:11;6.68;;;5.45;;
41115;SDS011;26861;51.824;4.682;2023-02-22T03:08:44;6.97;;;5.13;;
41115;SDS011;26861;51.824;4.682;2023-02-22T03:11:44;6.82;;;4.88;;
41115;SDS011;26861;51.824;4.682;2023-02-22T03:17:39;6.78;;;5.43;;
41115;SDS011;26861;51.824;4.682;2023-02-22T03:20:12;6.75;;;5.40;;
41115;SDS011;26861;51.824;4.682;2023-02-22T03:22:58;7.47;;;5.60;;
41115;SDS011;26861;51.824;4.682;2023-02-22T03:25:37;6.28;;;5.38;;
41115;SDS011;26861;51.824;4.682;2023-02-22T03:28:08;6.82;;;5.53;;
41115;SDS011;26861;51.824;4.682;2023-02-22T03:30:39;8.07;;;5.45;;
41115;SDS011;26861;51.824;4.682;2023-02-22T03:33:11;8.18;;;5.95;;
41115;SDS011;26861;51.824;4.682;2023-02-22T03:35:49;7.60;;;5.82;;
41115;SDS011;26861;51.824;4.682;2023-02-22T03:38:21;6.65;;;4.95;;
41115;SDS011;26861;51.824;4.682;2023-02-22T03:40:51;6.22;;;4.93;;
41115;SDS011;26861;51.824;4.682;2023-02-22T03:43:24;6.38;;;5.18;;
41115;SDS011;26861;51.824;4.682;2023-02-22T03:45:56;8.27;;;5.70;;
41115;SDS011;26861;51.824;4.682;2023-02-22T03:48:34;7.13;;;5.43;;
41115;SDS011;26861;51.824;4.682;2023-02-22T03:51:13;5.85;;;4.82;;
41115;SDS011;26861;51.824;4.682;2023-02-22T03:53:40;7.50;;;5.82;;
41115;SDS011;26861;51.824;4.682;2023-02-22T03:56:09;7.22;;;5.40;;
41115;SDS011;26861;51.824;4.682;2023-02-22T03:58:37;7.20;;;5.53;;
41115;SDS011;26861;51.824;4.682;2023-02-22T04:01:07;6.95;;;5.28;;
41115;SDS011;26861;51.824;4.682;2023-02-22T04:03:34;7.32;;;5.70;;
41115;SDS011;26861;51.824;4.682;2023-02-22T04:05:59;6.65;;;4.85;;
41115;SDS011;26861;51.824;4.682;2023-02-22T04:08:25;8.32;;;5.82;;
41115;SDS011;26861;51.824;4.682;2023-02-22T04:10:50;6.43;;;5.07;;
41115;SDS011;26861;51.824;4.682;2023-02-22T04:13:16;8.25;;;5.38;;
41115;SDS011;26861;51.824;4.682;2023-02-22T04:15:42;6.25;;;5.00;;
41115;SDS011;26861;51.824;4.682;2023-02-22T04:18:08;5.90;;;5.13;;
41115;SDS011;26861;51.824;4.682;2023-02-22T04:20:34;6.88;;;4.80;;
41115;SDS011;26861;51.824;4.682;2023-02-22T04:23:00;6.55;;;5.03;;
41115;SDS011;26861;51.824;4.682;2023-02-22T04:25:26;6.35;;;4.68;;
41115;SDS011;26861;51.824;4.682;2023-02-22T04:27:53;7.57;;;5.50;;
41115;SDS011;26861;51.824;4.682;2023-02-22T04:30:19;6.22;;;5.35;;
41115;SDS011;26861;51.824;4.682;2023-02-22T04:32:45;6.60;;;4.93;;
41115;SDS011;26861;51.824;4.682;2023-02-22T04:35:12;7.32;;;5.20;;
41115;SDS011;26861;51.824;4.682;2023-02-22T04:37:38;6.15;;;5.05;;
41115;SDS011;26861;51.824;4.682;2023-02-22T04:40:04;7.95;;;5.35;;
41115;SDS011;26861;51.824;4.682;2023-02-22T04:42:35;5.55;;;4.95;;
41115;SDS011;26861;51.824;4.682;2023-02-22T04:45:02;5.88;;;5.03;;
41115;SDS011;26861;51.824;4.682;2023-02-22T04:47:29;5.82;;;4.97;;
41115;SDS011;26861;51.824;4.682;2023-02-22T04:49:55;6.22;;;4.82;;
41115;SDS011;26861;51.824;4.682;2023-02-22T04:52:21;5.85;;;4.82;;
41115;SDS011;26861;51.824;4.682;2023-02-22T04:54:47;7.60;;;5.82;;
41115;SDS011;26861;51.824;4.682;2023-02-22T04:57:13;5.97;;;4.85;;
41115;SDS011;26861;51.824;4.682;2023-02-22T04:59:39;5.45;;;4.50;;
41115;SDS011;26861;51.824;4.682;2023-02-22T05:02:05;7.03;;;4.70;;
41115;SDS011;26861;51.824;4.682;2023-02-22T05:04:31;6.72;;;5.32;;
41115;SDS011;26861;51.824;4.682;2023-02-22T05:06:57;5.60;;;4.70;;
41115;SDS011;26861;51.824;4.682;2023-02-22T05:09:23;7.28;;;5.15;;
41115;SDS011;26861;51.824;4.682;2023-02-22T05:11:49;6.10;;;4.75;;
41115;SDS011;26861;51.824;4.682;2023-02-22T05:14:15;4.90;;;4.40;;
41115;SDS011;26861;51.824;4.682;2023-02-22T05:16:41;4.97;;;4.22;;
41115;SDS011;26861;51.824;4.682;2023-02-22T05:19:07;5.35;;;4.50;;
41115;SDS011;26861;51.824;4.682;2023-02-22T05:21:33;5.75;;;4.30;;
41115;SDS011;26861;51.824;4.682;2023-02-22T05:23:59;5.70;;;4.65;;
41115;SDS011;26861;51.824;4.682;2023-02-22T05:26:25;5.63;;;4.60;;
41115;SDS011;26861;51.824;4.682;2023-02-22T05:28:51;5.25;;;4.55;;
41115;SDS011;26861;51.824;4.682;2023-02-22T05:31:16;5.07;;;4.05;;
41115;SDS011;26861;51.824;4.682;2023-02-22T05:33:42;4.35;;;3.67;;
41115;SDS011;26861;51.824;4.682;2023-02-22T05:36:08;4.97;;;4.03;;
41115;SDS011;26861;51.824;4.682;2023-02-22T05:38:35;5.18;;;4.68;;
41115;SDS011;26861;51.824;4.682;2023-02-22T05:41:07;4.90;;;4.32;;
41115;SDS011;26861;51.824;4.682;2023-02-22T05:43:33;4.57;;;4.03;;
41115;SDS011;26861;51.824;4.682;2023-02-22T05:45:59;4.97;;;4.47;;
41115;SDS011;26861;51.824;4.682;2023-02-22T05:48:25;5.93;;;5.00;;
41115;SDS011;26861;51.824;4.682;2023-02-22T05:50:51;6.03;;;5.43;;
41115;SDS011;26861;51.824;4.682;2023-02-22T05:53:17;7.47;;;6.78;;
41115;SDS011;26861;51.824;4.682;2023-02-22T05:55:43;8.80;;;8.00;;
41115;SDS011;26861;51.824;4.682;2023-02-22T05:58:09;10.93;;;9.93;;
41115;SDS011;26861;51.824;4.682;2023-02-22T06:00:34;12.98;;;11.88;;
41115;SDS011;26861;51.824;4.682;2023-02-22T06:03:00;15.57;;;14.18;;
41115;SDS011;26861;51.824;4.682;2023-02-22T06:05:29;20.08;;;18.38;;
41115;SDS011;26861;51.824;4.682;2023-02-22T06:07:55;26.33;;;24.02;;
41115;SDS011;26861;51.824;4.682;2023-02-22T06:10:22;26.83;;;24.60;;
41115;SDS011;26861;51.824;4.682;2023-02-22T06:12:48;31.48;;;28.77;;
41115;SDS011;26861;51.824;4.682;2023-02-22T06:15:15;39.90;;;36.33;;
41115;SDS011;26861;51.824;4.682;2023-02-22T06:17:42;42.17;;;38.45;;
41115;SDS011;26861;51.824;4.682;2023-02-22T06:20:08;45.17;;;41.03;;
41115;SDS011;26861;51.824;4.682;2023-02-22T06:22:35;47.50;;;43.22;;
41115;SDS011;26861;51.824;4.682;2023-02-22T06:25:02;50.00;;;45.60;;
41115;SDS011;26861;51.824;4.682;2023-02-22T06:27:31;51.15;;;46.63;;
41115;SDS011;26861;51.824;4.682;2023-02-22T06:29:57;51.90;;;47.42;;
41115;SDS011;26861;51.824;4.682;2023-02-22T06:32:24;53.08;;;48.47;;
41115;SDS011;26861;51.824;4.682;2023-02-22T06:34:49;53.30;;;48.60;;
41115;SDS011;26861;51.824;4.682;2023-02-22T06:37:15;53.13;;;48.53;;
41115;SDS011;26861;51.824;4.682;2023-02-22T06:39:41;52.17;;;47.60;;
41115;SDS011;26861;51.824;4.682;2023-02-22T06:42:06;49.53;;;45.13;;
41115;SDS011;26861;51.824;4.682;2023-02-22T06:44:32;48.47;;;44.25;;
41115;SDS011;26861;51.824;4.682;2023-02-22T06:46:58;50.35;;;45.97;;
41115;SDS011;26861;51.824;4.682;2023-02-22T06:49:24;47.60;;;43.45;;
41115;SDS011;26861;51.824;4.682;2023-02-22T06:51:50;46.63;;;42.58;;
41115;SDS011;26861;51.824;4.682;2023-02-22T06:54:16;47.10;;;42.95;;
41115;SDS011;26861;51.824;4.682;2023-02-22T06:56:42;45.50;;;41.47;;
41115;SDS011;26861;51.824;4.682;2023-02-22T06:59:09;43.35;;;39.67;;
41115;SDS011;26861;51.824;4.682;2023-02-22T07:01:35;42.13;;;38.40;;
41115;SDS011;26861;51.824;4.682;2023-02-22T07:04:01;42.00;;;38.30;;
41115;SDS011;26861;51.824;4.682;2023-02-22T07:06:27;39.95;;;36.50;;
41115;SDS011;26861;51.824;4.682;2023-02-22T07:08:54;35.63;;;32.60;;
41115;SDS011;26861;51.824;4.682;2023-02-22T07:11:21;36.17;;;33.08;;
41115;SDS011;26861;51.824;4.682;2023-02-22T07:13:47;34.22;;;31.20;;
41115;SDS011;26861;51.824;4.682;2023-02-22T07:16:13;33.63;;;30.38;;
41115;SDS011;26861;51.824;4.682;2023-02-22T07:18:39;33.17;;;30.25;;
41115;SDS011;26861;51.824;4.682;2023-02-22T07:21:05;34.22;;;31.17;;
41115;SDS011;26861;51.824;4.682;2023-02-22T07:23:32;31.85;;;29.15;;
41115;SDS011;26861;51.824;4.682;2023-02-22T07:26:01;31.98;;;29.35;;
41115;SDS011;26861;51.824;4.682;2023-02-22T07:28:29;32.80;;;29.83;;
41115;SDS011;26861;51.824;4.682;2023-02-22T07:30:55;30.27;;;27.42;;
41115;SDS011;26861;51.824;4.682;2023-02-22T07:33:20;31.05;;;26.63;;
41115;SDS011;26861;51.824;4.682;2023-02-22T07:35:47;28.73;;;26.13;;
41115;SDS011;26861;51.824;4.682;2023-02-22T07:38:14;28.38;;;25.67;;
41115;SDS011;26861;51.824;4.682;2023-02-22T07:40:42;27.92;;;25.33;;
41115;SDS011;26861;51.824;4.682;2023-02-22T07:45:43;25.40;;;23.20;;
41115;SDS011;26861;51.824;4.682;2023-02-22T07:48:10;24.50;;;22.35;;
41115;SDS011;26861;51.824;4.682;2023-02-22T07:50:37;24.65;;;22.35;;
41115;SDS011;26861;51.824;4.682;2023-02-22T07:53:05;22.50;;;20.60;;
41115;SDS011;26861;51.824;4.682;2023-02-22T07:55:32;22.30;;;20.30;;
41115;SDS011;26861;51.824;4.682;2023-02-22T07:58:00;21.42;;;19.52;;
41115;SDS011;26861;51.824;4.682;2023-02-22T08:00:29;22.25;;;19.80;;
41115;SDS011;26861;51.824;4.682;2023-02-22T08:02:58;20.23;;;18.05;;
41115;SDS011;26861;51.824;4.682;2023-02-22T08:05:25;20.92;;;18.95;;
41115;SDS011;26861;51.824;4.682;2023-02-22T08:07:51;19.85;;;17.83;;
41115;SDS011;26861;51.824;4.682;2023-02-22T08:10:18;17.88;;;16.27;;
41115;SDS011;26861;51.824;4.682;2023-02-22T08:12:46;17.58;;;15.77;;
41115;SDS011;26861;51.824;4.682;2023-02-22T08:15:20;18.20;;;16.40;;
41115;SDS011;26861;51.824;4.682;2023-02-22T08:17:49;17.73;;;15.95;;
41115;SDS011;26861;51.824;4.682;2023-02-22T08:20:15;16.40;;;14.85;;
41115;SDS011;26861;51.824;4.682;2023-02-22T08:22:44;16.35;;;14.73;;
41115;SDS011;26861;51.824;4.682;2023-02-22T08:25:11;16.27;;;14.68;;
41115;SDS011;26861;51.824;4.682;2023-02-22T08:27:40;14.23;;;12.93;;
41115;SDS011;26861;51.824;4.682;2023-02-22T08:30:08;13.90;;;12.60;;
41115;SDS011;26861;51.824;4.682;2023-02-22T08:32:43;14.02;;;12.63;;
41115;SDS011;26861;51.824;4.682;2023-02-22T08:35:11;12.80;;;11.50;;
41115;SDS011;26861;51.824;4.682;2023-02-22T08:37:42;12.80;;;11.50;;
41115;SDS011;26861;51.824;4.682;2023-02-22T08:40:13;11.93;;;10.68;;
41115;SDS011;26861;51.824;4.682;2023-02-22T08:42:42;11.85;;;10.68;;
41115;SDS011;26861;51.824;4.682;2023-02-22T08:45:08;10.73;;;9.70;;
41115;SDS011;26861;51.824;4.682;2023-02-22T08:47:35;10.68;;;9.68;;
41115;SDS011;26861;51.824;4.682;2023-02-22T08:50:02;10.45;;;9.45;;
41115;SDS011;26861;51.824;4.682;2023-02-22T08:52:28;10.10;;;9.10;;
41115;SDS011;26861;51.824;4.682;2023-02-22T08:54:54;10.50;;;9.18;;
41115;SDS011;26861;51.824;4.682;2023-02-22T08:57:21;9.25;;;8.35;;
41115;SDS011;26861;51.824;4.682;2023-02-22T08:59:47;9.68;;;8.68;;
41115;SDS011;26861;51.824;4.682;2023-02-22T09:02:14;8.52;;;7.70;;
41115;SDS011;26861;51.824;4.682;2023-02-22T09:04:41;11.20;;;8.55;;
41115;SDS011;26861;51.824;4.682;2023-02-22T09:07:07;8.43;;;7.55;;
41115;SDS011;26861;51.824;4.682;2023-02-22T09:09:33;8.30;;;7.50;;
41115;SDS011;26861;51.824;4.682;2023-02-22T09:12:00;7.78;;;7.07;;
41115;SDS011;26861;51.824;4.682;2023-02-22T09:14:26;7.43;;;6.72;;
41115;SDS011;26861;51.824;4.682;2023-02-22T09:16:52;6.95;;;6.35;;
41115;SDS011;26861;51.824;4.682;2023-02-22T09:19:17;6.95;;;5.82;;
41115;SDS011;26861;51.824;4.682;2023-02-22T09:21:43;7.60;;;6.15;;
41115;SDS011;26861;51.824;4.682;2023-02-22T09:24:09;7.57;;;6.50;;
41115;SDS011;26861;51.824;4.682;2023-02-22T09:26:35;8.10;;;7.30;;
41115;SDS011;26861;51.824;4.682;2023-02-22T09:29:04;6.38;;;5.78;;
41115;SDS011;26861;51.824;4.682;2023-02-22T09:31:35;6.72;;;5.90;;
41115;SDS011;26861;51.824;4.682;2023-02-22T09:34:05;7.88;;;5.68;;
41115;SDS011;26861;51.824;4.682;2023-02-22T09:36:42;5.75;;;5.22;;
41115;SDS011;26861;51.824;4.682;2023-02-22T09:39:11;5.97;;;5.38;;
41115;SDS011;26861;51.824;4.682;2023-02-22T09:46:53;5.13;;;4.63;;
41115;SDS011;26861;51.824;4.682;2023-02-22T09:49:31;5.72;;;5.13;;
41115;SDS011;26861;51.824;4.682;2023-02-22T09:52:05;5.20;;;4.63;;
41115;SDS011;26861;51.824;4.682;2023-02-22T09:54:39;6.35;;;4.88;;
41115;SDS011;26861;51.824;4.682;2023-02-22T09:57:27;5.07;;;4.57;;
41115;SDS011;26861;51.824;4.682;2023-02-22T10:00:06;5.45;;;4.80;;
41115;SDS011;26861;51.824;4.682;2023-02-22T10:05:33;7.15;;;5.18;;
41115;SDS011;26861;51.824;4.682;2023-02-22T10:08:10;6.97;;;5.10;;
41115;SDS011;26861;51.824;4.682;2023-02-22T10:10:40;4.97;;;4.47;;
41115;SDS011;26861;51.824;4.682;2023-02-22T10:15:48;5.68;;;4.32;;
41115;SDS011;26861;51.824;4.682;2023-02-22T10:21:28;5.57;;;4.95;;
41115;SDS011;26861;51.824;4.682;2023-02-22T10:27:18;5.18;;;4.32;;
41115;SDS011;26861;51.824;4.682;2023-02-22T10:29:49;4.25;;;3.85;;
41115;SDS011;26861;51.824;4.682;2023-02-22T10:32:42;5.18;;;4.30;;
41115;SDS011;26861;51.824;4.682;2023-02-22T10:35:22;6.68;;;4.85;;
41115;SDS011;26861;51.824;4.682;2023-02-22T10:37:56;4.88;;;3.88;;
41115;SDS011;26861;51.824;4.682;2023-02-22T10:40:26;4.22;;;3.63;;
41115;SDS011;26861;51.824;4.682;2023-02-22T10:43:05;5.32;;;4.32;;
41115;SDS011;26861;51.824;4.682;2023-02-22T10:45:33;4.55;;;3.92;;
41115;SDS011;26861;51.824;4.682;2023-02-22T10:48:03;4.63;;;3.65;;
41115;SDS011;26861;51.824;4.682;2023-02-22T10:50:37;4.65;;;3.78;;
41115;SDS011;26861;51.824;4.682;2023-02-22T10:53:05;5.20;;;4.30;;
41115;SDS011;26861;51.824;4.682;2023-02-22T10:55:31;4.45;;;3.38;;
41115;SDS011;26861;51.824;4.682;2023-02-22T10:58:03;5.07;;;3.75;;
41115;SDS011;26861;51.824;4.682;2023-02-22T11:00:32;3.22;;;2.92;;
41115;SDS011;26861;51.824;4.682;2023-02-22T11:03:22;4.80;;;3.57;;
41115;SDS011;26861;51.824;4.682;2023-02-22T11:05:48;4.22;;;3.35;;
41115;SDS011;26861;51.824;4.682;2023-02-22T11:10:54;3.90;;;3.50;;
41115;SDS011;26861;51.824;4.682;2023-02-22T11:13:23;4.97;;;3.42;;
41115;SDS011;26861;51.824;4.682;2023-02-22T11:15:54;4.30;;;3.38;;
41115;SDS011;26861;51.824;4.682;2023-02-22T11:18:24;3.80;;;3.40;;
41115;SDS011;26861;51.824;4.682;2023-02-22T11:21:07;3.70;;;3.03;;
41115;SDS011;26861;51.824;4.682;2023-02-22T11:23:39;6.03;;;3.88;;
41115;SDS011;26861;51.824;4.682;2023-02-22T11:26:08;3.83;;;3.15;;
41115;SDS011;26861;51.824;4.682;2023-02-22T11:28:42;3.63;;;3.17;;
41115;SDS011;26861;51.824;4.682;2023-02-22T11:31:15;3.83;;;3.42;;
41115;SDS011;26861;51.824;4.682;2023-02-22T11:34:01;7.30;;;3.50;;
41115;SDS011;26861;51.824;4.682;2023-02-22T11:36:35;3.38;;;3.05;;
41115;SDS011;26861;51.824;4.682;2023-02-22T11:39:09;3.63;;;3.00;;
41115;SDS011;26861;51.824;4.682;2023-02-22T11:41:48;4.10;;;3.42;;
41115;SDS011;26861;51.824;4.682;2023-02-22T11:44:25;3.35;;;2.90;;
41115;SDS011;26861;51.824;4.682;2023-02-22T11:46:56;3.95;;;3.20;;
41115;SDS011;26861;51.824;4.682;2023-02-22T11:49:31;4.10;;;3.35;;
41115;SDS011;26861;51.824;4.682;2023-02-22T11:57:54;3.72;;;3.15;;
41115;SDS011;26861;51.824;4.682;2023-02-22T12:01:02;3.03;;;2.60;;
41115;SDS011;26861;51.824;4.682;2023-02-22T12:09:40;2.78;;;2.58;;
41115;SDS011;26861;51.824;4.682;2023-02-22T12:12:03;2.95;;;2.67;;
41115;SDS011;26861;51.824;4.682;2023-02-22T12:18:38;3.85;;;3.40;;
41115;SDS011;26861;51.824;4.682;2023-02-22T12:20:52;3.42;;;2.90;;
41115;SDS011;26861;51.824;4.682;2023-02-22T12:26:13;4.22;;;3.50;;
41115;SDS011;26861;51.824;4.682;2023-02-22T12:31:50;3.50;;;3.20;;
41115;SDS011;26861;51.824;4.682;2023-02-22T12:34:27;4.40;;;3.05;;
41115;SDS011;26861;51.824;4.682;2023-02-22T12:37:11;4.05;;;3.10;;
41115;SDS011;26861;51.824;4.682;2023-02-22T12:47:55;3.35;;;3.05;;
41115;SDS011;26861;51.824;4.682;2023-02-22T12:50:32;4.88;;;3.05;;
41115;SDS011;26861;51.824;4.682;2023-02-22T12:53:12;4.35;;;3.35;;
41115;SDS011;26861;51.824;4.682;2023-02-22T12:56:42;4.57;;;3.70;;
41115;SDS011;26861;51.824;4.682;2023-02-22T12:59:15;3.75;;;2.72;;
41115;SDS011;26861;51.824;4.682;2023-02-22T13:01:45;4.80;;;3.88;;
41115;SDS011;26861;51.824;4.682;2023-02-22T13:04:21;5.50;;;3.47;;
41115;SDS011;26861;51.824;4.682;2023-02-22T13:06:49;6.72;;;4.93;;
41115;SDS011;26861;51.824;4.682;2023-02-22T13:09:49;6.53;;;4.60;;
41115;SDS011;26861;51.824;4.682;2023-02-22T13:18:13;5.50;;;4.32;;
41115;SDS011;26861;51.824;4.682;2023-02-22T13:20:53;4.65;;;4.00;;
41115;SDS011;26861;51.824;4.682;2023-02-22T13:23:36;5.18;;;3.97;;
41115;SDS011;26861;51.824;4.682;2023-02-22T13:29:16;4.80;;;4.18;;
41115;SDS011;26861;51.824;4.682;2023-02-22T13:31:53;6.03;;;4.22;;
41115;SDS011;26861;51.824;4.682;2023-02-22T13:34:44;6.05;;;4.13;;
41115;SDS011;26861;51.824;4.682;2023-02-22T13:40:27;4.40;;;3.70;;
41115;SDS011;26861;51.824;4.682;2023-02-22T13:49:27;5.20;;;3.83;;
41115;SDS011;26861;51.824;4.682;2023-02-22T13:51:47;5.55;;;4.45;;
41115;SDS011;26861;51.824;4.682;2023-02-22T13:54:21;6.68;;;3.95;;
41115;SDS011;26861;51.824;4.682;2023-02-22T13:56:58;6.82;;;4.53;;
41115;SDS011;26861;51.824;4.682;2023-02-22T13:59:34;4.00;;;3.60;;
41115;SDS011;26861;51.824;4.682;2023-02-22T14:02:02;5.70;;;3.83;;
41115;SDS011;26861;51.824;4.682;2023-02-22T14:04:41;4.90;;;4.13;;
41115;SDS011;26861;51.824;4.682;2023-02-22T14:09:52;5.78;;;3.50;;
41115;SDS011;26861;51.824;4.682;2023-02-22T14:15:16;6.28;;;4.05;;
41115;SDS011;26861;51.824;4.682;2023-02-22T14:17:49;4.43;;;3.72;;
41115;SDS011;26861;51.824;4.682;2023-02-22T14:20:35;5.35;;;3.78;;
41115;SDS011;26861;51.824;4.682;2023-02-22T14:23:48;6.53;;;4.20;;
41115;SDS011;26861;51.824;4.682;2023-02-22T14:25:55;7.63;;;4.88;;
41115;SDS011;26861;51.824;4.682;2023-02-22T14:31:14;4.57;;;4.13;;
41115;SDS011;26861;51.824;4.682;2023-02-22T14:33:56;5.78;;;3.92;;
41115;SDS011;26861;51.824;4.682;2023-02-22T14:36:38;7.40;;;4.38;;
41115;SDS011;26861;51.824;4.682;2023-02-22T14:45:02;6.20;;;4.40;;
41115;SDS011;26861;51.824;4.682;2023-02-22T14:52:47;6.32;;;4.50;;
41115;SDS011;26861;51.824;4.682;2023-02-22T14:55:28;5.20;;;3.90;;
41115;SDS011;26861;51.824;4.682;2023-02-22T14:58:01;5.43;;;3.85;;
41115;SDS011;26861;51.824;4.682;2023-02-22T15:00:43;5.25;;;4.25;;
41115;SDS011;26861;51.824;4.682;2023-02-22T15:06:05;4.82;;;3.78;;
41115;SDS011;26861;51.824;4.682;2023-02-22T15:08:38;5.57;;;4.45;;
41115;SDS011;26861;51.824;4.682;2023-02-22T15:11:19;5.18;;;4.43;;
41115;SDS011;26861;51.824;4.682;2023-02-22T15:13:51;4.80;;;3.75;;
41115;SDS011;26861;51.824;4.682;2023-02-22T15:16:18;7.25;;;4.82;;
41115;SDS011;26861;51.824;4.682;2023-02-22T15:18:46;5.72;;;4.13;;
41115;SDS011;26861;51.824;4.682;2023-02-22T15:21:17;10.02;;;6.45;;
41115;SDS011;26861;51.824;4.682;2023-02-22T15:23:48;6.78;;;5.88;;
41115;SDS011;26861;51.824;4.682;2023-02-22T15:26:30;6.78;;;5.60;;
41115;SDS011;26861;51.824;4.682;2023-02-22T15:29:06;8.43;;;6.10;;
41115;SDS011;26861;51.824;4.682;2023-02-22T15:31:40;7.40;;;5.75;;
41115;SDS011;26861;51.824;4.682;2023-02-22T15:36:36;7.25;;;5.65;;
41115;SDS011;26861;51.824;4.682;2023-02-22T15:39:01;10.13;;;6.72;;
41115;SDS011;26861;51.824;4.682;2023-02-22T15:41:33;7.25;;;5.75;;
41115;SDS011;26861;51.824;4.682;2023-02-22T15:44:04;7.75;;;6.03;;
41115;SDS011;26861;51.824;4.682;2023-02-22T15:46:32;11.10;;;7.38;;
41115;SDS011;26861;51.824;4.682;2023-02-22T15:51:40;9.80;;;7.10;;
41115;SDS011;26861;51.824;4.682;2023-02-22T15:54:11;10.63;;;7.20;;
41115;SDS011;26861;51.824;4.682;2023-02-22T15:56:46;10.95;;;8.73;;
41115;SDS011;26861;51.824;4.682;2023-02-22T15:59:15;10.93;;;8.15;;
41115;SDS011;26861;51.824;4.682;2023-02-22T16:01:47;8.85;;;7.00;;
41115;SDS011;26861;51.824;4.682;2023-02-22T16:04:17;13.23;;;10.48;;
41115;SDS011;26861;51.824;4.682;2023-02-22T16:06:45;14.85;;;11.82;;
41115;SDS011;26861;51.824;4.682;2023-02-22T16:09:13;16.88;;;13.43;;
41115;SDS011;26861;51.824;4.682;2023-02-22T16:11:43;14.68;;;10.88;;
41115;SDS011;26861;51.824;4.682;2023-02-22T16:14:27;13.00;;;10.75;;
41115;SDS011;26861;51.824;4.682;2023-02-22T16:19:49;16.08;;;11.77;;
41115;SDS011;26861;51.824;4.682;2023-02-22T16:22:35;14.13;;;10.70;;
41115;SDS011;26861;51.824;4.682;2023-02-22T16:27:57;15.45;;;11.25;;
41115;SDS011;26861;51.824;4.682;2023-02-22T16:30:28;15.85;;;12.25;;
41115;SDS011;26861;51.824;4.682;2023-02-22T16:33:01;12.35;;;9.63;;
41115;SDS011;26861;51.824;4.682;2023-02-22T16:38:03;17.67;;;10.75;;
41115;SDS011;26861;51.824;4.682;2023-02-22T16:40:53;15.98;;;11.32;;
41115;SDS011;26861;51.824;4.682;2023-02-22T16:43:31;13.97;;;10.83;;
41115;SDS011;26861;51.824;4.682;2023-02-22T16:45:59;15.35;;;11.45;;
41115;SDS011;26861;51.824;4.682;2023-02-22T16:48:27;14.40;;;11.48;;
41115;SDS011;26861;51.824;4.682;2023-02-22T16:50:55;15.48;;;12.35;;
41115;SDS011;26861;51.824;4.682;2023-02-22T16:53:25;19.20;;;13.40;;
41115;SDS011;26861;51.824;4.682;2023-02-22T16:55:55;18.40;;;13.27;;
41115;SDS011;26861;51.824;4.682;2023-02-22T16:58:26;17.90;;;12.65;;
41115;SDS011;26861;51.824;4.682;2023-02-22T17:00:53;17.02;;;12.20;;
41115;SDS011;26861;51.824;4.682;2023-02-22T17:03:21;16.73;;;12.52;;
41115;SDS011;26861;51.824;4.682;2023-02-22T17:05:47;18.70;;;13.13;;